createdAt,value
2022-11-08T00:00:42.568Z,13.90
2022-11-08T00:03:09.394Z,13.90
2022-11-08T00:05:54.684Z,13.90
2022-11-08T00:08:40.032Z,13.90
2022-11-08T00:11:25.421Z,13.80
2022-11-08T00:13:58.803Z,13.80
2022-11-08T00:16:26.588Z,13.80
2022-11-08T00:18:53.271Z,13.70
2022-11-08T00:21:20.107Z,13.70
2022-11-08T00:23:47.048Z,13.80
2022-11-08T00:26:13.776Z,13.70
2022-11-08T00:28:40.492Z,13.70
2022-11-08T00:31:08.040Z,13.70
2022-11-08T00:33:35.434Z,13.70
2022-11-08T00:36:03.414Z,13.70
2022-11-08T00:38:30.083Z,13.70
2022-11-08T00:40:56.943Z,13.70
2022-11-08T00:43:23.695Z,13.70
2022-11-08T00:45:50.440Z,13.70
2022-11-08T00:48:17.407Z,13.70
2022-11-08T00:50:44.507Z,13.70
2022-11-08T00:53:11.179Z,13.70
2022-11-08T00:55:37.948Z,13.60
2022-11-08T00:58:04.579Z,13.60
2022-11-08T01:00:31.417Z,13.60
2022-11-08T01:03:16.840Z,13.60
2022-11-08T01:05:43.650Z,13.60
2022-11-08T01:08:11.254Z,13.60
2022-11-08T01:10:42.532Z,13.60
2022-11-08T01:13:09.552Z,13.60
2022-11-08T01:15:38.264Z,13.60
2022-11-08T01:18:05.218Z,13.60
2022-11-08T01:20:32.204Z,13.60
2022-11-08T01:22:59.540Z,13.60
2022-11-08T01:25:26.444Z,13.60
2022-11-08T01:27:53.048Z,13.60
2022-11-08T01:30:19.913Z,13.70
2022-11-08T01:32:46.578Z,13.70
2022-11-08T01:35:13.480Z,13.70
2022-11-08T01:37:40.117Z,13.80
2022-11-08T01:40:07.847Z,13.80
2022-11-08T01:42:34.587Z,13.80
2022-11-08T01:45:08.993Z,13.80
2022-11-08T01:47:35.816Z,13.80
2022-11-08T01:50:17.119Z,13.80
2022-11-08T01:52:50.263Z,13.80
2022-11-08T01:55:22.781Z,13.70
2022-11-08T01:57:52.672Z,13.70
2022-11-08T02:00:20.157Z,13.70
2022-11-08T02:02:53.974Z,13.70
2022-11-08T02:05:26.800Z,13.60
2022-11-08T02:08:14.614Z,13.60
2022-11-08T02:10:44.736Z,13.60
2022-11-08T02:13:15.186Z,13.60
2022-11-08T02:15:43.648Z,13.60
2022-11-08T02:18:11.702Z,13.50
2022-11-08T02:20:43.635Z,13.50
2022-11-08T02:23:23.897Z,13.50
2022-11-08T02:25:50.564Z,13.40
2022-11-08T02:28:17.695Z,13.40
2022-11-08T02:30:44.778Z,13.40
2022-11-08T02:33:22.413Z,13.40
2022-11-08T02:35:54.607Z,13.40
2022-11-08T02:38:23.937Z,13.40
2022-11-08T02:40:52.862Z,13.30
2022-11-08T02:43:20.725Z,13.30
2022-11-08T02:45:47.967Z,13.30
2022-11-08T02:48:17.297Z,13.20
2022-11-08T02:50:45.037Z,13.20
2022-11-08T02:53:12.152Z,13.20
2022-11-08T02:55:39.434Z,13.20
2022-11-08T02:58:06.188Z,13.10
2022-11-08T03:00:33.029Z,13.20
2022-11-08T03:03:00.275Z,13.10
2022-11-08T03:05:27.980Z,13.10
2022-11-08T03:07:56.102Z,13.10
2022-11-08T03:10:24.619Z,13.00
2022-11-08T03:12:58.668Z,13.00
2022-11-08T03:15:25.844Z,12.90
2022-11-08T03:17:52.517Z,12.90
2022-11-08T03:20:19.669Z,12.80
2022-11-08T03:22:46.567Z,12.80
2022-11-08T03:25:13.643Z,12.80
2022-11-08T03:27:40.640Z,12.70
2022-11-08T03:30:08.027Z,12.60
2022-11-08T03:32:34.642Z,12.60
2022-11-08T03:35:01.731Z,12.50
2022-11-08T03:37:28.367Z,12.50
2022-11-08T03:39:55.605Z,12.40
2022-11-08T03:42:22.280Z,12.30
2022-11-08T03:44:49.151Z,12.30
2022-11-08T03:47:15.784Z,12.20
2022-11-08T03:49:43.680Z,12.20
2022-11-08T03:52:10.287Z,12.10
2022-11-08T03:54:37.186Z,12.10
2022-11-08T03:57:03.925Z,12.10
2022-11-08T03:59:31.504Z,12.00
2022-11-08T04:01:58.330Z,12.00
2022-11-08T04:04:25.315Z,11.90
2022-11-08T04:06:52.007Z,11.90
2022-11-08T04:09:21.499Z,11.90
2022-11-08T04:12:07.404Z,11.90
2022-11-08T04:14:53.166Z,11.80
2022-11-08T04:17:39.792Z,11.80
2022-11-08T04:20:37.815Z,11.70
2022-11-08T04:23:04.533Z,11.70
2022-11-08T04:25:35.087Z,11.70
2022-11-08T04:28:02.291Z,11.70
2022-11-08T04:30:29.028Z,11.70
2022-11-08T04:32:55.920Z,11.70
2022-11-08T04:35:22.644Z,11.70
2022-11-08T04:37:49.512Z,11.70
2022-11-08T04:40:16.458Z,11.70
2022-11-08T04:42:46.090Z,11.80
2022-11-08T04:45:12.728Z,11.80
2022-11-08T04:47:43.129Z,11.80
2022-11-08T04:50:12.936Z,11.80
2022-11-08T04:52:40.026Z,11.90
2022-11-08T04:55:07.251Z,11.80
2022-11-08T04:57:34.528Z,11.80
2022-11-08T05:00:01.372Z,11.80
2022-11-08T05:02:28.354Z,11.80
2022-11-08T05:04:55.053Z,11.80
2022-11-08T05:07:21.887Z,11.80
2022-11-08T05:09:48.620Z,11.80
2022-11-08T05:12:15.283Z,11.70
2022-11-08T05:14:42.068Z,11.70
2022-11-08T05:17:08.899Z,11.70
2022-11-08T05:19:54.071Z,11.60
2022-11-08T05:22:39.207Z,11.60
2022-11-08T05:25:06.420Z,11.50
2022-11-08T05:27:34.104Z,11.50
2022-11-08T05:30:01.315Z,11.50
2022-11-08T05:32:28.002Z,11.50
2022-11-08T05:34:55.392Z,11.40
2022-11-08T05:37:22.039Z,11.40
2022-11-08T05:39:48.915Z,11.30
2022-11-08T05:42:15.699Z,11.30
2022-11-08T05:44:42.581Z,11.30
2022-11-08T05:47:09.199Z,11.20
2022-11-08T05:49:35.828Z,11.20
2022-11-08T05:52:02.811Z,11.20
2022-11-08T05:54:29.441Z,11.20
2022-11-08T05:56:56.132Z,11.10
2022-11-08T05:59:22.820Z,11.10
2022-11-08T06:01:51.761Z,11.10
2022-11-08T06:04:18.391Z,11.10
2022-11-08T06:06:45.143Z,11.00
2022-11-08T06:09:11.787Z,11.00
2022-11-08T06:11:38.572Z,11.00
2022-11-08T06:14:06.386Z,11.00
2022-11-08T06:16:33.176Z,10.90
2022-11-08T06:19:00.253Z,10.90
2022-11-08T06:21:27.346Z,10.90
2022-11-08T06:23:54.924Z,10.90
2022-11-08T06:26:23.080Z,10.90
2022-11-08T06:28:50.156Z,10.90
2022-11-08T06:31:16.793Z,10.90
2022-11-08T06:33:43.521Z,10.80
2022-11-08T06:36:10.226Z,10.80
2022-11-08T06:38:37.208Z,10.80
2022-11-08T06:41:04.044Z,10.90
2022-11-08T06:43:30.752Z,10.90
2022-11-08T06:46:02.282Z,10.90
2022-11-08T06:48:35.156Z,10.90
2022-11-08T06:51:03.357Z,10.90
2022-11-08T06:53:30.144Z,10.90
2022-11-08T06:55:59.531Z,11.00
2022-11-08T06:58:26.209Z,11.00
2022-11-08T07:00:53.119Z,11.00
2022-11-08T07:03:20.081Z,11.00
2022-11-08T07:05:46.951Z,11.00
2022-11-08T07:08:14.610Z,11.10
2022-11-08T07:10:41.989Z,11.10
2022-11-08T07:13:12.474Z,11.10
2022-11-08T07:15:39.859Z,11.10
2022-11-08T07:18:09.509Z,11.10
2022-11-08T07:20:38.165Z,11.20
2022-11-08T07:23:05.641Z,11.10
2022-11-08T07:25:33.579Z,11.10
2022-11-08T07:28:06.835Z,11.20
2022-11-08T07:30:35.629Z,11.20
2022-11-08T07:33:03.038Z,11.20
2022-11-08T07:35:30.900Z,11.30
2022-11-08T07:37:57.605Z,11.30
2022-11-08T07:40:24.444Z,11.30
2022-11-08T07:43:11.232Z,11.40
2022-11-08T07:45:38.275Z,11.40
2022-11-08T07:48:11.376Z,11.50
2022-11-08T07:50:40.449Z,11.50
2022-11-08T07:53:07.255Z,11.60
2022-11-08T07:55:37.073Z,11.70
2022-11-08T07:58:04.557Z,11.80
2022-11-08T08:00:33.190Z,12.00
2022-11-08T08:03:01.124Z,12.10
2022-11-08T08:05:29.872Z,12.20
2022-11-08T08:07:58.188Z,12.40
2022-11-08T08:10:25.784Z,12.50
2022-11-08T08:12:52.571Z,12.60
2022-11-08T08:15:19.428Z,12.60
2022-11-08T08:17:46.249Z,12.70
2022-11-08T08:20:13.385Z,12.80
2022-11-08T08:22:48.291Z,12.90
2022-11-08T08:25:16.311Z,13.00
2022-11-08T08:27:57.498Z,13.20
2022-11-08T08:30:24.471Z,13.30
2022-11-08T08:33:08.467Z,13.50
2022-11-08T08:35:39.135Z,13.70
2022-11-08T08:38:07.054Z,13.90
2022-11-08T08:40:34.576Z,14.10
2022-11-08T08:43:03.324Z,14.30
2022-11-08T08:45:30.988Z,14.50
2022-11-08T08:47:58.588Z,14.80
2022-11-08T08:50:26.796Z,15.40
2022-11-08T08:53:03.955Z,16.10
2022-11-08T08:55:31.677Z,17.10
2022-11-08T08:57:58.343Z,18.10
2022-11-08T09:03:12.789Z,20.00
2022-11-08T09:05:46.424Z,20.80
2022-11-08T09:08:14.520Z,21.40
2022-11-08T09:10:41.750Z,21.70
2022-11-08T09:13:08.492Z,21.80
2022-11-08T09:15:35.155Z,21.90
2022-11-08T09:18:02.146Z,21.80
2022-11-08T09:20:29.108Z,21.60
2022-11-08T09:22:55.728Z,21.40
2022-11-08T09:25:22.538Z,21.20
2022-11-08T09:27:49.187Z,21.00
2022-11-08T09:30:15.832Z,20.80
2022-11-08T09:35:29.908Z,20.70
2022-11-08T09:37:57.154Z,20.70
2022-11-08T09:40:38.260Z,20.80
2022-11-08T09:43:38.555Z,20.70
2022-11-08T09:46:16.540Z,20.70
2022-11-08T09:48:45.024Z,20.70
2022-11-08T09:51:15.645Z,20.60
2022-11-08T09:53:49.409Z,20.60
2022-11-08T09:56:24.928Z,20.50
2022-11-08T09:59:02.278Z,20.40
2022-11-08T10:01:34.625Z,20.40
2022-11-08T10:04:14.571Z,20.40
2022-11-08T10:06:54.024Z,20.40
2022-11-08T10:09:47.766Z,20.50
2022-11-08T10:12:36.419Z,20.70
2022-11-08T10:15:25.063Z,21.00
2022-11-08T10:18:03.464Z,21.10
2022-11-08T10:20:35.652Z,21.20
2022-11-08T10:23:21.826Z,21.10
2022-11-08T10:26:00.096Z,21.00
2022-11-08T10:28:34.923Z,20.80
2022-11-08T10:31:02.424Z,20.60
2022-11-08T10:33:34.816Z,20.40
2022-11-08T10:36:24.101Z,20.30
2022-11-08T10:39:09.160Z,20.00
2022-11-08T10:41:43.456Z,19.70
2022-11-08T10:44:23.713Z,19.50
2022-11-08T10:46:57.423Z,19.30
2022-11-08T10:49:28.319Z,19.10
2022-11-08T10:51:58.128Z,18.90
2022-11-08T10:54:54.265Z,18.70
2022-11-08T10:57:32.984Z,18.60
2022-11-08T11:00:21.883Z,18.40
2022-11-08T11:02:58.793Z,18.30
2022-11-08T11:05:42.672Z,18.20
2022-11-08T11:10:54.829Z,18.00
2022-11-08T11:13:43.815Z,17.90
2022-11-08T11:16:14.375Z,17.80
2022-11-08T11:18:50.526Z,17.80
2022-11-08T11:21:20.507Z,17.70
2022-11-08T11:23:53.629Z,17.70
2022-11-08T11:26:34.337Z,17.60
2022-11-08T11:29:04.126Z,17.50
2022-11-08T11:31:36.895Z,17.50
2022-11-08T11:34:18.961Z,17.50
2022-11-08T11:36:51.097Z,17.50
2022-11-08T11:39:31.492Z,17.50
2022-11-08T11:42:31.128Z,17.60
2022-11-08T11:45:02.832Z,17.60
2022-11-08T11:47:50.285Z,17.70
2022-11-08T11:50:28.057Z,17.70
2022-11-08T11:52:56.727Z,17.70
2022-11-08T11:55:47.705Z,17.70
2022-11-08T11:58:43.962Z,17.70
2022-11-08T12:01:48.705Z,17.70
2022-11-08T12:04:18.380Z,17.70
2022-11-08T12:06:48.548Z,17.70
2022-11-08T12:09:27.624Z,17.70
2022-11-08T12:12:15.065Z,17.70
2022-11-08T12:14:55.246Z,17.70
2022-11-08T12:17:43.725Z,17.70
2022-11-08T12:20:30.123Z,17.70
2022-11-08T12:23:37.352Z,17.70
2022-11-08T12:26:15.824Z,17.70
2022-11-08T12:29:22.650Z,17.70
2022-11-08T12:32:17.461Z,17.80
2022-11-08T12:34:53.984Z,17.80
2022-11-08T12:37:20.820Z,17.80
2022-11-08T12:39:59.336Z,17.90
2022-11-08T12:42:52.247Z,18.00
2022-11-08T12:45:51.336Z,18.00
2022-11-08T12:48:18.195Z,18.10
2022-11-08T12:51:11.367Z,18.10
2022-11-08T12:54:05.125Z,18.20
2022-11-08T12:57:02.679Z,18.30
2022-11-08T12:59:53.140Z,18.40
2022-11-08T13:02:30.005Z,18.50
2022-11-08T13:05:04.148Z,18.50
2022-11-08T13:07:47.820Z,18.60
2022-11-08T13:10:43.194Z,18.60
2022-11-08T13:13:44.453Z,18.70
2022-11-08T13:16:14.280Z,18.70
2022-11-08T13:18:53.207Z,18.70
2022-11-08T13:21:26.031Z,18.70
2022-11-08T13:23:53.986Z,18.60
2022-11-08T13:26:22.933Z,18.60
2022-11-08T13:28:50.689Z,18.60
2022-11-08T13:31:26.545Z,18.60
2022-11-08T13:34:08.879Z,18.50
2022-11-08T13:37:01.545Z,18.50
2022-11-08T13:39:51.449Z,18.40
2022-11-08T13:42:18.182Z,18.40
2022-11-08T13:45:00.413Z,18.30
2022-11-08T13:47:33.196Z,18.30
2022-11-08T13:50:28.237Z,18.30
2022-11-08T13:53:08.413Z,18.20
2022-11-08T13:55:44.301Z,18.10
2022-11-08T13:58:43.300Z,18.10
2022-11-08T14:01:37.604Z,18.10
2022-11-08T14:04:42.916Z,18.00
2022-11-08T14:07:28.150Z,18.00
2022-11-08T14:10:11.654Z,17.90
2022-11-08T14:13:00.416Z,17.90
2022-11-08T14:15:33.760Z,17.80
2022-11-08T14:18:05.845Z,17.80
2022-11-08T14:20:41.632Z,17.70
2022-11-08T14:23:20.851Z,17.60
2022-11-08T14:25:56.820Z,17.60
2022-11-08T14:28:51.355Z,17.60
2022-11-08T14:31:33.087Z,17.50
2022-11-08T14:34:00.647Z,17.50
2022-11-08T14:36:30.149Z,17.50
2022-11-08T14:39:04.641Z,17.40
2022-11-08T14:41:33.756Z,17.40
2022-11-08T14:44:02.486Z,17.40
2022-11-08T14:46:39.030Z,17.30
2022-11-08T14:49:22.212Z,17.30
2022-11-08T14:52:07.584Z,17.30
2022-11-08T14:54:40.796Z,17.30
2022-11-08T14:57:28.298Z,17.20
2022-11-08T14:59:56.788Z,17.20
2022-11-08T15:02:24.712Z,17.20
2022-11-08T15:04:52.085Z,17.20
2022-11-08T15:07:21.325Z,17.20
2022-11-08T15:09:49.332Z,17.20
2022-11-08T15:12:19.783Z,17.10
2022-11-08T15:14:51.840Z,17.10
2022-11-08T15:17:36.612Z,17.10
2022-11-08T15:20:22.264Z,17.00
2022-11-08T15:22:51.866Z,17.00
2022-11-08T15:25:38.350Z,17.00
2022-11-08T15:28:26.000Z,17.00
2022-11-08T15:31:01.971Z,17.00
2022-11-08T15:33:35.983Z,17.00
2022-11-08T15:36:10.391Z,16.90
2022-11-08T15:38:39.476Z,16.90
2022-11-08T15:41:30.771Z,17.00
2022-11-08T15:44:22.484Z,16.90
2022-11-08T15:46:50.546Z,16.90
2022-11-08T15:49:26.564Z,16.90
2022-11-08T15:51:56.050Z,16.90
2022-11-08T15:54:24.337Z,16.90
2022-11-08T15:56:53.200Z,16.90
2022-11-08T15:59:24.456Z,16.90
2022-11-08T16:01:59.415Z,16.90
2022-11-08T16:04:28.089Z,16.90
2022-11-08T16:06:55.533Z,16.90
2022-11-08T16:09:22.276Z,16.80
2022-11-08T16:11:50.071Z,16.80
2022-11-08T16:14:19.470Z,16.80
2022-11-08T16:16:46.383Z,16.80
2022-11-08T16:19:24.719Z,16.80
2022-11-08T16:21:52.480Z,16.80
2022-11-08T16:24:19.427Z,16.70
2022-11-08T16:26:46.594Z,16.80
2022-11-08T16:29:24.458Z,16.70
2022-11-08T16:31:51.778Z,16.70
2022-11-08T16:34:18.802Z,16.70
2022-11-08T16:36:46.977Z,16.70
2022-11-08T16:39:19.122Z,16.60
2022-11-08T16:41:45.805Z,16.60
2022-11-08T16:44:12.847Z,16.70
2022-11-08T16:46:39.824Z,16.70
2022-11-08T16:49:08.104Z,16.70
2022-11-08T16:51:35.572Z,16.70
2022-11-08T16:54:03.451Z,16.70
2022-11-08T16:56:30.398Z,16.70
2022-11-08T16:58:57.168Z,16.70
2022-11-08T17:01:32.060Z,16.70
2022-11-08T17:03:58.821Z,16.60
2022-11-08T17:06:25.617Z,16.60
2022-11-08T17:08:52.432Z,16.60
2022-11-08T17:11:21.494Z,16.60
2022-11-08T17:13:49.359Z,16.60
2022-11-08T17:16:16.497Z,16.60
2022-11-08T17:18:43.146Z,16.60
2022-11-08T17:21:42.600Z,16.70
2022-11-08T17:23:59.895Z,16.70
2022-11-08T17:26:26.933Z,16.70
2022-11-08T17:28:56.815Z,16.70
2022-11-08T17:31:23.524Z,16.70
2022-11-08T17:33:50.324Z,16.70
2022-11-08T17:36:16.948Z,16.70
2022-11-08T17:38:43.835Z,16.60
2022-11-08T17:41:15.257Z,16.60
2022-11-08T17:43:43.255Z,16.60
2022-11-08T17:46:14.115Z,16.70
2022-11-08T17:48:40.969Z,16.60
2022-11-08T17:51:08.521Z,16.60
2022-11-08T17:53:35.578Z,16.60
2022-11-08T17:56:05.361Z,16.60
2022-11-08T17:58:34.255Z,16.60
2022-11-08T18:01:03.219Z,16.60
2022-11-08T18:03:30.222Z,16.60
2022-11-08T18:06:04.351Z,16.60
2022-11-08T18:08:33.297Z,16.60
2022-11-08T18:11:00.282Z,16.70
2022-11-08T18:13:28.778Z,16.60
2022-11-08T18:15:55.849Z,16.60
2022-11-08T18:18:22.516Z,16.60
2022-11-08T18:20:55.876Z,16.60
2022-11-08T18:23:22.841Z,16.60
2022-11-08T18:25:50.720Z,16.70
2022-11-08T18:28:17.897Z,16.60
2022-11-08T18:30:48.089Z,16.70
2022-11-08T18:33:19.934Z,16.70
2022-11-08T18:35:47.101Z,16.70
2022-11-08T18:38:14.315Z,16.70
2022-11-08T18:40:44.562Z,16.70
2022-11-08T18:43:11.859Z,16.70
2022-11-08T18:45:38.705Z,16.70
2022-11-08T18:48:06.097Z,16.70
2022-11-08T18:50:32.800Z,16.80
2022-11-08T18:53:03.802Z,16.70
2022-11-08T18:55:31.664Z,16.70
2022-11-08T18:58:00.931Z,16.80
2022-11-08T19:00:27.715Z,16.80
2022-11-08T19:02:54.908Z,16.80
2022-11-08T19:05:21.868Z,16.80
2022-11-08T19:07:48.493Z,16.80
2022-11-08T19:10:15.519Z,16.80
2022-11-08T19:12:42.180Z,16.80
2022-11-08T19:15:09.323Z,16.80
2022-11-08T19:17:36.289Z,16.80
2022-11-08T19:20:04.173Z,16.80
2022-11-08T19:22:30.879Z,16.80
2022-11-08T19:24:57.647Z,16.80
2022-11-08T19:27:24.331Z,16.80
2022-11-08T19:29:50.957Z,16.80
2022-11-08T19:32:17.732Z,16.80
2022-11-08T19:34:46.886Z,16.80
2022-11-08T19:37:13.653Z,16.80
2022-11-08T19:39:40.396Z,16.80
2022-11-08T19:42:07.198Z,16.80
2022-11-08T19:44:33.887Z,16.80
2022-11-08T19:47:00.684Z,16.80
2022-11-08T19:49:28.613Z,16.80
2022-11-08T19:51:55.292Z,16.80
2022-11-08T19:54:22.016Z,16.80
2022-11-08T19:57:05.943Z,16.80
2022-11-08T19:59:33.203Z,16.80
2022-11-08T20:02:00.402Z,16.80
2022-11-08T20:04:27.280Z,16.80
2022-11-08T20:06:54.193Z,16.90
2022-11-08T20:09:23.550Z,16.80
2022-11-08T20:11:55.143Z,16.80
2022-11-08T20:14:21.822Z,16.80
2022-11-08T20:16:53.286Z,16.80
2022-11-08T20:19:20.663Z,16.80
2022-11-08T20:21:47.575Z,16.80
2022-11-08T20:24:14.801Z,16.90
2022-11-08T20:26:42.458Z,16.80
2022-11-08T20:29:09.120Z,16.80
2022-11-08T20:31:36.734Z,16.80
2022-11-08T20:34:05.811Z,16.90
2022-11-08T20:36:39.708Z,16.80
2022-11-08T20:39:07.656Z,16.90
2022-11-08T20:41:37.737Z,16.80
2022-11-08T20:44:06.096Z,16.90
2022-11-08T20:46:34.176Z,16.80
2022-11-08T20:49:01.728Z,16.90
2022-11-08T20:51:30.294Z,16.90
2022-11-08T20:53:58.296Z,16.90
2022-11-08T20:56:26.689Z,16.90
2022-11-08T20:58:53.634Z,16.90
2022-11-08T21:01:23.229Z,16.90
2022-11-08T21:03:51.072Z,16.90
2022-11-08T21:06:22.014Z,17.00
2022-11-08T21:09:16.922Z,17.00
2022-11-08T21:11:36.004Z,17.00
2022-11-08T21:14:05.938Z,17.00
2022-11-08T21:16:52.812Z,17.00
2022-11-08T21:19:19.944Z,17.10
2022-11-08T21:21:49.348Z,17.10
2022-11-08T21:24:17.139Z,17.10
2022-11-08T21:26:43.802Z,17.10
2022-11-08T21:29:10.631Z,17.10
2022-11-08T21:31:37.317Z,17.00
2022-11-08T21:34:04.326Z,17.10
2022-11-08T21:36:31.013Z,17.00
2022-11-08T21:38:57.688Z,17.00
2022-11-08T21:41:24.428Z,16.90
2022-11-08T21:43:51.068Z,16.90
2022-11-08T21:46:24.013Z,16.90
2022-11-08T21:48:59.269Z,16.80
2022-11-08T21:51:26.820Z,16.80
2022-11-08T21:53:55.747Z,16.70
2022-11-08T21:56:24.568Z,16.70
2022-11-08T21:58:51.631Z,16.70
2022-11-08T22:01:18.670Z,16.70
2022-11-08T22:03:46.580Z,16.60
2022-11-08T22:06:13.793Z,16.60
2022-11-08T22:08:40.499Z,16.60
2022-11-08T22:11:07.342Z,16.50
2022-11-08T22:13:34.017Z,16.50
2022-11-08T22:16:00.765Z,16.50
2022-11-08T22:18:43.386Z,16.50
2022-11-08T22:21:32.790Z,16.50
2022-11-08T22:23:59.623Z,16.50
2022-11-08T22:26:26.245Z,16.50
2022-11-08T22:28:53.184Z,16.50
2022-11-08T22:31:20.031Z,16.50
2022-11-08T22:33:46.659Z,16.50
2022-11-08T22:36:13.779Z,16.50
2022-11-08T22:38:40.382Z,16.50
2022-11-08T22:41:07.171Z,16.50
2022-11-08T22:43:35.806Z,16.50
2022-11-08T22:46:03.140Z,16.60
2022-11-08T22:48:29.959Z,16.50
2022-11-08T22:50:57.362Z,16.50
2022-11-08T22:53:24.355Z,16.50
2022-11-08T22:55:51.327Z,16.60
2022-11-08T22:58:18.052Z,16.60
2022-11-08T23:00:53.322Z,16.50
2022-11-08T23:03:32.629Z,16.50
2022-11-08T23:05:59.536Z,16.60
2022-11-08T23:08:27.119Z,16.60
2022-11-08T23:11:13.126Z,16.60
2022-11-08T23:13:58.947Z,16.60
2022-11-08T23:16:32.193Z,16.60
2022-11-08T23:19:18.507Z,16.60
2022-11-08T23:22:03.951Z,16.60
2022-11-08T23:24:31.591Z,16.60
2022-11-08T23:27:21.481Z,16.60
2022-11-08T23:30:06.898Z,16.60
2022-11-08T23:32:34.611Z,16.60
2022-11-08T23:35:01.661Z,16.60
2022-11-08T23:37:28.518Z,16.60
2022-11-08T23:40:14.152Z,16.50
2022-11-08T23:42:59.696Z,16.60
2022-11-08T23:45:26.698Z,16.50
2022-11-08T23:47:53.438Z,16.50
2022-11-08T23:50:20.691Z,16.40
2022-11-08T23:52:47.384Z,16.40
2022-11-08T23:55:14.368Z,16.40
2022-11-08T23:57:41.027Z,16.40
